Time;durP1;ratioP1;P1;durP2;ratioP2;P2;SDS_P1;SDS_P2;PMS_P1;PMS_P2;Temp;Humidity;BMP_temperature;BMP_pressure;BME280_temperature;BME280_humidity;BME280_pressure;Samples;Min_cycle;Max_cycle;Signal;HPM_P1;HPM_P2
2022/11/08 00:04:15;;;;;;;77.40;36.03;;;5.70;99.90;;;;;;10364704;28;20034;-77
2022/11/08 00:14:35;;;;;;;91.37;43.10;;;5.70;99.90;;;;;;10365685;28;20656;-79
2022/11/08 00:19:36;;;;;;;82.70;40.00;;;5.60;99.90;;;;;;10364650;28;20042;-78
2022/11/08 00:24:36;;;;;;;78.77;38.17;;;5.50;99.90;;;;;;10392308;28;20493;-78
2022/11/08 00:29:37;;;;;;;67.03;36.10;;;5.50;99.90;;;;;;10447336;28;20025;-78
2022/11/08 00:34:38;;;;;;;63.20;35.20;;;5.50;99.90;;;;;;10445928;28;20041;-81
2022/11/08 00:39:38;;;;;;;63.47;34.77;;;5.50;99.90;;;;;;10446210;28;20219;-80
2022/11/08 00:44:39;;;;;;;76.40;38.77;;;5.40;99.90;;;;;;10445556;28;20033;-80
2022/11/08 00:49:40;;;;;;;88.80;46.13;;;5.30;99.90;;;;;;10445199;28;20036;-78
2022/11/08 00:54:40;;;;;;;84.27;42.70;;;5.30;99.90;;;;;;10446132;28;20517;-78
2022/11/08 00:59:41;;;;;;;76.80;40.40;;;5.20;99.90;;;;;;10444919;28;20071;-78
2022/11/08 01:04:41;;;;;;;77.27;37.40;;;5.20;99.90;;;;;;10444811;28;20446;-78
2022/11/08 01:09:42;;;;;;;87.47;42.37;;;5.10;99.90;;;;;;10426829;28;20093;-78
2022/11/08 01:14:42;;;;;;;66.90;34.90;;;5.10;99.90;;;;;;10445061;28;20037;-81
2022/11/08 01:19:43;;;;;;;68.93;34.93;;;5.10;99.90;;;;;;10444587;28;20041;-81
2022/11/08 01:24:43;;;;;;;80.87;37.70;;;5.00;99.90;;;;;;10445045;28;20063;-78
2022/11/08 01:29:44;;;;;;;88.17;41.40;;;4.90;99.90;;;;;;10444954;28;20036;-77
2022/11/08 01:34:44;;;;;;;90.43;43.33;;;4.80;99.90;;;;;;10443017;28;20044;-77
2022/11/08 01:39:45;;;;;;;93.13;42.93;;;4.80;99.90;;;;;;10458528;28;20029;-79
2022/11/08 01:45:35;;;;;;;78.03;37.40;;;4.70;99.90;;;;;;10458396;28;20040;-78
2022/11/08 01:50:35;;;;;;;68.67;34.07;;;4.70;99.90;;;;;;10451911;28;20061;-78
2022/11/08 01:55:36;;;;;;;89.67;43.33;;;4.70;99.90;;;;;;10457090;28;20132;-78
2022/11/08 02:00:38;;;;;;;88.67;43.47;;;4.60;99.90;;;;;;10457510;28;20025;-78
2022/11/08 02:05:39;;;;;;;98.80;43.13;;;4.60;99.90;;;;;;10457648;28;20032;-80
2022/11/08 02:10:43;;;;;;;76.40;40.17;;;4.70;99.90;;;;;;10457413;28;20388;-78
2022/11/08 02:15:44;;;;;;;78.20;39.63;;;4.70;99.90;;;;;;10457227;28;20052;-78
2022/11/08 02:21:23;;;;;;;70.30;37.17;;;4.70;99.90;;;;;;10456838;28;20044;-78
2022/11/08 02:26:35;;;;;;;73.07;36.87;;;4.70;99.90;;;;;;10456813;28;20064;-80
2022/11/08 02:31:35;;;;;;;88.77;41.93;;;4.80;99.90;;;;;;10456582;28;20029;-79
2022/11/08 02:36:36;;;;;;;70.60;35.57;;;4.80;99.90;;;;;;10456623;28;20048;-79
2022/11/08 02:41:36;;;;;;;70.50;36.33;;;4.70;99.90;;;;;;10457893;28;20619;-79
2022/11/08 02:46:37;;;;;;;85.10;39.30;;;4.70;99.90;;;;;;10456819;28;20037;-80
2022/11/08 02:51:37;;;;;;;96.50;45.07;;;4.70;99.90;;;;;;10448709;28;20040;-78
2022/11/08 02:56:38;;;;;;;82.40;42.20;;;4.60;99.90;;;;;;10450494;28;20045;-80
2022/11/08 03:01:38;;;;;;;88.20;42.47;;;4.70;99.90;;;;;;10448968;28;20477;-78
2022/11/08 03:06:39;;;;;;;93.93;42.80;;;4.60;99.90;;;;;;10449967;28;20032;-80
2022/11/08 03:11:40;;;;;;;110.33;48.67;;;4.60;99.90;;;;;;10448589;28;20036;-79
2022/11/08 03:16:40;;;;;;;94.63;42.30;;;4.50;99.90;;;;;;10447909;28;20048;-79
2022/11/08 03:21:41;;;;;;;105.37;46.93;;;4.50;99.90;;;;;;10443483;28;20044;-81
2022/11/08 03:26:41;;;;;;;85.00;40.23;;;4.40;99.90;;;;;;10449216;28;20057;-79
2022/11/08 03:31:42;;;;;;;84.07;39.73;;;4.30;99.90;;;;;;10448410;28;20108;-78
2022/11/08 03:36:42;;;;;;;82.03;39.90;;;4.40;99.90;;;;;;10448435;28;20568;-79
2022/11/08 03:41:43;;;;;;;106.60;44.33;;;4.40;99.90;;;;;;10448591;28;20037;-78
2022/11/08 03:46:44;;;;;;;84.17;40.93;;;4.40;99.90;;;;;;10447874;28;20029;-80
2022/11/08 03:51:44;;;;;;;80.30;40.07;;;4.20;99.90;;;;;;10447922;28;20033;-78
2022/11/08 03:56:45;;;;;;;84.00;42.33;;;4.30;99.90;;;;;;10462916;22;20064;-78
2022/11/08 04:01:45;;;;;;;109.67;50.37;;;4.30;99.90;;;;;;10445784;28;20090;-78
2022/11/08 04:06:46;;;;;;;82.37;40.67;;;4.30;99.90;;;;;;10445093;28;20031;-78
2022/11/08 04:17:05;;;;;;;137.17;66.97;;;4.20;99.90;;;;;;10446402;28;20834;-81
2022/11/08 04:22:09;;;;;;;91.40;44.10;;;4.10;99.90;;;;;;10447291;28;20033;-78
2022/11/08 04:27:09;;;;;;;92.77;45.87;;;4.20;99.90;;;;;;10446970;28;20350;-78
2022/11/08 04:32:10;;;;;;;97.37;46.97;;;4.20;99.90;;;;;;10445707;28;20032;-80
2022/11/08 04:37:10;;;;;;;122.37;46.07;;;4.20;99.90;;;;;;10446280;28;20033;-77
2022/11/08 04:42:11;;;;;;;93.17;43.10;;;4.10;99.90;;;;;;10427987;28;20052;-79
2022/11/08 04:47:11;;;;;;;115.83;46.80;;;4.00;99.90;;;;;;10445679;28;20465;-78
2022/11/08 04:52:14;;;;;;;110.20;48.10;;;3.90;99.90;;;;;;10445684;28;20029;-78
2022/11/08 04:57:15;;;;;;;132.90;60.77;;;3.90;99.90;;;;;;10445304;28;20053;-78
2022/11/08 05:02:15;;;;;;;176.87;65.80;;;3.80;99.90;;;;;;10445509;28;20045;-76
2022/11/08 05:07:16;;;;;;;184.67;66.23;;;3.70;99.90;;;;;;10446026;28;20029;-78
2022/11/08 05:12:16;;;;;;;153.70;57.90;;;3.60;99.90;;;;;;10444497;28;20029;-77
2022/11/08 05:17:17;;;;;;;153.37;55.97;;;3.60;99.90;;;;;;10444027;28;20072;-79
2022/11/08 05:27:37;;;;;;;111.03;47.93;;;3.50;99.90;;;;;;10440834;28;20041;-79
2022/11/08 05:32:37;;;;;;;108.83;49.83;;;3.50;99.90;;;;;;10442800;28;20033;-79
2022/11/08 05:37:40;;;;;;;123.63;52.13;;;3.60;99.90;;;;;;10443735;28;20041;-79
2022/11/08 05:42:41;;;;;;;135.03;56.73;;;3.60;99.90;;;;;;10444722;28;20021;-77
2022/11/08 05:47:45;;;;;;;140.37;54.43;;;3.70;99.90;;;;;;10439190;28;20025;-79
2022/11/08 05:52:46;;;;;;;113.77;52.13;;;3.80;99.90;;;;;;10433788;28;20029;-80
2022/11/08 05:57:46;;;;;;;122.60;56.07;;;3.80;99.90;;;;;;10443709;28;20057;-78
2022/11/08 06:02:47;;;;;;;120.57;60.37;;;3.90;99.90;;;;;;10442633;28;20107;-78
2022/11/08 06:07:48;;;;;;;128.30;55.70;;;4.00;99.90;;;;;;10443647;28;20033;-77
2022/11/08 06:12:48;;;;;;;132.03;56.63;;;4.10;99.90;;;;;;10455485;28;20436;-77
2022/11/08 06:17:49;;;;;;;121.57;55.47;;;4.10;99.90;;;;;;10442233;28;20516;-80
2022/11/08 06:22:49;;;;;;;92.20;47.27;;;4.20;99.90;;;;;;10444293;28;20039;-78
2022/11/08 06:27:50;;;;;;;98.37;52.53;;;4.30;99.90;;;;;;10451883;28;20586;-78
2022/11/08 06:32:50;;;;;;;102.83;55.87;;;4.40;99.90;;;;;;10451035;28;20025;-77
2022/11/08 06:37:51;;;;;;;170.33;80.97;;;4.50;99.90;;;;;;10451149;28;20501;-80
2022/11/08 06:42:52;;;;;;;203.63;86.33;;;4.50;99.90;;;;;;10449592;28;20103;-79
2022/11/08 06:47:57;;;;;;;156.00;80.07;;;4.60;99.90;;;;;;10450227;28;20055;-80
2022/11/08 06:53:00;;;;;;;163.17;80.90;;;4.60;99.90;;;;;;10451505;28;20069;-78
2022/11/08 06:58:00;;;;;;;147.97;74.77;;;4.70;99.90;;;;;;10450259;28;20779;-79
2022/11/08 07:03:02;;;;;;;111.13;60.07;;;4.80;99.90;;;;;;10449843;28;20025;-80
2022/11/08 07:08:03;;;;;;;108.33;56.63;;;5.00;99.90;;;;;;10451063;28;20033;-77
2022/11/08 07:13:10;;;;;;;125.70;65.43;;;5.10;99.90;;;;;;10465705;22;20087;-77
2022/11/08 07:18:12;;;;;;;98.90;55.17;;;5.20;99.90;;;;;;10440017;28;20071;-77
2022/11/08 07:23:13;;;;;;;98.00;51.90;;;5.40;99.90;;;;;;10476820;28;20024;-78
2022/11/08 07:28:16;;;;;;;86.07;44.20;;;5.60;99.90;;;;;;10468962;28;20032;-77
2022/11/08 07:33:17;;;;;;;84.27;43.63;;;5.90;99.90;;;;;;10466549;28;20028;-78
2022/11/08 07:38:17;;;;;;;79.87;48.00;;;6.10;99.90;;;;;;10478611;28;20074;-78
2022/11/08 07:43:18;;;;;;;121.20;67.70;;;6.40;99.90;;;;;;10488476;28;20435;-78
2022/11/08 07:48:18;;;;;;;74.73;44.77;;;6.70;99.90;;;;;;10478845;28;20040;-79
2022/11/08 07:53:19;;;;;;;65.13;38.67;;;7.10;99.90;;;;;;10462042;28;20128;-77
2022/11/08 07:58:20;;;;;;;68.87;38.43;;;7.50;99.90;;;;;;10462878;28;20036;-78
2022/11/08 08:03:21;;;;;;;66.03;37.10;;;7.80;99.90;;;;;;10465051;28;20532;-78
2022/11/08 08:08:21;;;;;;;60.90;34.97;;;8.20;99.90;;;;;;10472190;28;20047;-77
2022/11/08 08:13:22;;;;;;;59.17;35.13;;;8.60;99.90;;;;;;10482840;28;20415;-81
2022/11/08 08:18:22;;;;;;;53.67;34.77;;;8.90;99.90;;;;;;10472518;28;20049;-79
2022/11/08 08:23:23;;;;;;;55.73;34.37;;;9.20;99.90;;;;;;10468004;28;20544;-78
2022/11/08 08:28:24;;;;;;;58.85;35.75;;;9.50;99.90;;;;;;10458778;28;20044;-80
2022/11/08 08:33:24;;;;;;;52.27;31.70;;;9.70;99.90;;;;;;10446052;28;20029;-79
2022/11/08 08:38:25;;;;;;;98.30;53.28;;;10.00;99.90;;;;;;10478638;22;20063;-78
2022/11/08 08:43:26;;;;;;;49.63;30.15;;;10.30;99.90;;;;;;10475395;28;20107;-81
2022/11/08 08:48:27;;;;;;;44.00;27.00;;;10.60;99.90;;;;;;10448383;28;20037;-78
2022/11/08 08:53:28;;;;;;;47.60;26.83;;;10.90;99.90;;;;;;10446410;28;20033;-78
2022/11/08 08:58:28;;;;;;;44.33;26.60;;;11.20;99.90;;;;;;10445660;28;20045;-80
2022/11/08 09:03:29;;;;;;;36.72;22.40;;;11.40;99.90;;;;;;10445828;28;20552;-79
2022/11/08 09:08:30;;;;;;;37.45;21.27;;;11.60;99.90;;;;;;10445208;28;20037;-79
2022/11/08 09:13:31;;;;;;;36.13;21.73;;;11.90;99.90;;;;;;10444841;28;20033;-78
2022/11/08 09:18:31;;;;;;;32.95;19.65;;;12.10;99.90;;;;;;10445443;28;20435;-78
2022/11/08 09:23:32;;;;;;;34.58;19.20;;;12.30;99.90;;;;;;10444577;28;20052;-80
2022/11/08 09:28:34;;;;;;;31.50;18.85;;;12.50;99.90;;;;;;10444641;28;20033;-78
2022/11/08 09:33:36;;;;;;;32.47;17.45;;;12.70;99.90;;;;;;10444603;28;20043;-78
2022/11/08 09:38:37;;;;;;;22.10;14.10;;;13.00;99.90;;;;;;10437415;28;20075;-79
2022/11/08 09:44:15;;;;;;;18.77;11.23;;;13.10;99.90;;;;;;10445139;28;20036;-79
2022/11/08 09:49:47;;;;;;;17.73;9.98;;;13.30;99.90;;;;;;10432976;28;20039;-78
2022/11/08 09:54:52;;;;;;;15.70;8.95;;;13.40;99.90;;;;;;10443567;28;20044;-81
2022/11/08 10:00:03;;;;;;;15.57;8.97;;;13.50;99.90;;;;;;10449964;28;20692;-82
2022/11/08 10:05:08;;;;;;;15.38;8.80;;;13.60;99.90;;;;;;10452281;28;20039;-77
2022/11/08 10:10:41;;;;;;;17.23;9.80;;;13.80;99.90;;;;;;10451297;28;20043;-78
2022/11/08 10:15:59;;;;;;;20.75;10.13;;;14.00;99.90;;;;;;10447253;28;20037;-78
2022/11/08 10:21:37;;;;;;;36.33;18.90;;;14.20;99.90;;;;;;10451584;28;20028;-78
2022/11/08 10:26:44;;;;;;;22.15;11.02;;;14.40;99.90;;;;;;10439080;28;20037;-77
2022/11/08 10:31:46;;;;;;;18.38;8.43;;;14.50;99.90;;;;;;10450832;28;20029;-77
2022/11/08 10:36:51;;;;;;;20.45;10.73;;;14.60;99.90;;;;;;10450932;28;20086;-78
2022/11/08 10:42:01;;;;;;;23.13;10.67;;;14.70;99.90;;;;;;10451070;28;20500;-77
2022/11/08 10:47:06;;;;;;;15.05;8.40;;;14.90;99.90;;;;;;10450319;28;20496;-77
2022/11/08 10:52:21;;;;;;;26.23;12.27;;;15.00;99.90;;;;;;10450898;28;20120;-77
2022/11/08 10:57:41;;;;;;;23.07;12.33;;;15.20;99.90;;;;;;10450859;28;20037;-78
2022/11/08 11:02:42;;;;;;;22.52;12.18;;;15.40;99.90;;;;;;10450479;28;20443;-79
2022/11/08 11:08:00;;;;;;;15.50;9.82;;;15.70;99.90;;;;;;10449650;28;20037;-78
2022/11/08 11:13:18;;;;;;;13.63;7.10;;;15.80;99.90;;;;;;10437027;28;20029;-78
2022/11/08 11:18:29;;;;;;;10.02;6.10;;;15.70;99.90;;;;;;10465856;22;20205;-79
2022/11/08 11:23:38;;;;;;;10.45;6.28;;;15.70;99.90;;;;;;10449374;28;20055;-79
2022/11/08 11:28:58;;;;;;;12.48;6.57;;;15.90;99.90;;;;;;10449304;28;20561;-79
2022/11/08 11:34:17;;;;;;;22.05;10.48;;;16.00;97.00;;;;;;10437175;28;20021;-78
2022/11/08 11:39:41;;;;;;;22.20;10.35;;;16.10;98.10;;;;;;10451499;28;20025;-78
2022/11/08 11:45:06;;;;;;;20.75;7.82;;;16.20;96.50;;;;;;10448883;28;20037;-78
2022/11/08 11:50:34;;;;;;;6.70;4.22;;;16.30;96.20;;;;;;10436324;28;20106;-81
2022/11/08 11:55:35;;;;;;;10.55;4.55;;;16.40;94.60;;;;;;10436776;28;20049;-78
2022/11/08 12:00:39;;;;;;;4.90;2.90;;;16.40;93.30;;;;;;10446299;28;20033;-77
2022/11/08 12:05:49;;;;;;;5.57;2.87;;;16.50;91.90;;;;;;10447162;28;20021;-78
2022/11/08 12:11:02;;;;;;;4.85;3.08;;;16.60;90.90;;;;;;10447161;28;20029;-79
2022/11/08 12:16:34;;;;;;;4.07;2.58;;;16.60;90.60;;;;;;10446559;28;20369;-80
2022/11/08 12:22:06;;;;;;;7.00;3.03;;;16.60;88.90;;;;;;10445091;28;20068;-78
2022/11/08 12:27:37;;;;;;;10.60;5.78;;;16.40;83.60;;;;;;10445645;28;20044;-78
2022/11/08 12:33:02;;;;;;;9.05;4.82;;;16.10;88.00;;;;;;10447008;28;20032;-78
2022/11/08 12:38:27;;;;;;;11.00;4.90;;;16.10;88.10;;;;;;10460945;28;20044;-81
2022/11/08 12:43:40;;;;;;;9.82;5.22;;;16.10;87.70;;;;;;10437867;28;20025;-79
2022/11/08 12:49:17;;;;;;;16.70;7.53;;;16.30;87.70;;;;;;10446572;28;20120;-79
2022/11/08 12:54:25;;;;;;;12.20;5.05;;;16.40;86.80;;;;;;10445652;28;20040;-78
2022/11/08 12:59:45;;;;;;;11.48;6.10;;;16.40;87.30;;;;;;10444699;28;20136;-78
2022/11/08 13:05:19;;;;;;;6.57;3.05;;;16.30;87.20;;;;;;10444655;28;20065;-80
2022/11/08 13:10:58;;;;;;;21.83;8.32;;;16.30;87.10;;;;;;10444944;28;20119;-78
2022/11/08 13:16:12;;;;;;;10.40;4.30;;;16.40;88.20;;;;;;10437985;28;20044;-81
2022/11/08 13:21:24;;;;;;;12.82;5.07;;;16.30;87.90;;;;;;10426830;28;20106;-79
2022/11/08 13:26:25;;;;;;;14.88;6.40;;;16.30;87.30;;;;;;10445082;28;20036;-78
2022/11/08 13:31:50;;;;;;;15.38;7.43;;;16.20;87.50;;;;;;10444654;28;20612;-79
2022/11/08 13:37:14;;;;;;;7.47;4.28;;;16.10;85.20;;;;;;10444391;28;20041;-78
2022/11/08 13:42:15;;;;;;;6.30;3.28;;;16.00;85.80;;;;;;10444061;28;20492;-79
2022/11/08 13:47:33;;;;;;;8.35;5.00;;;15.90;86.70;;;;;;10443934;28;20041;-79
2022/11/08 13:52:46;;;;;;;7.57;3.72;;;15.80;86.80;;;;;;10459578;22;20059;-79
2022/11/08 13:57:59;;;;;;;16.83;11.98;;;15.80;87.80;;;;;;10485215;28;20131;-82
2022/11/08 14:02:59;;;;;;;41.00;22.13;;;15.70;87.80;;;;;;10485599;28;20127;-82
2022/11/08 14:08:14;;;;;;;21.77;10.95;;;15.70;89.50;;;;;;10485785;28;20395;-81
2022/11/08 14:13:24;;;;;;;12.77;5.43;;;15.60;90.00;;;;;;10484828;28;20025;-79
2022/11/08 14:18:37;;;;;;;9.90;5.38;;;15.50;89.20;;;;;;10484532;28;20039;-80
2022/11/08 14:23:40;;;;;;;39.30;16.40;;;15.40;89.50;;;;;;10484625;28;20060;-83
2022/11/08 14:28:43;;;;;;;21.20;10.70;;;15.30;89.60;;;;;;10485226;28;20029;-80
2022/11/08 14:33:44;;;;;;;15.68;7.57;;;15.10;90.10;;;;;;10484551;28;20132;-79
2022/11/08 14:39:24;;;;;;;62.97;24.48;;;15.00;90.10;;;;;;10483563;28;20044;-79
2022/11/08 14:44:26;;;;;;;56.40;22.90;;;14.80;90.10;;;;;;10485304;28;20076;-80
2022/11/08 14:49:33;;;;;;;40.55;17.50;;;14.50;90.40;;;;;;10492514;28;20392;-80
2022/11/08 14:54:39;;;;;;;49.00;21.67;;;14.10;90.80;;;;;;10467345;28;20041;-78
2022/11/08 14:59:40;;;;;;;37.05;18.17;;;13.60;91.30;;;;;;10492000;28;20041;-78
2022/11/08 15:04:41;;;;;;;116.30;53.50;;;13.10;92.10;;;;;;10486208;28;20497;-78
2022/11/08 15:09:41;;;;;;;40.35;23.92;;;12.80;93.00;;;;;;10490675;28;20098;-80
2022/11/08 15:14:56;;;;;;;30.60;22.08;;;12.40;94.50;;;;;;10491039;28;20031;-78
2022/11/08 15:20:18;;;;;;;32.80;21.48;;;12.10;95.70;;;;;;10491243;28;20060;-81
2022/11/08 15:25:34;;;;;;;31.60;22.38;;;11.90;97.60;;;;;;10490666;28;20039;-82
2022/11/08 15:30:38;;;;;;;24.70;16.75;;;11.60;98.40;;;;;;10490722;28;20158;-78
2022/11/08 15:35:39;;;;;;;26.25;16.25;;;11.50;99.90;;;;;;10505481;22;20063;-78
2022/11/08 15:40:51;;;;;;;32.90;19.48;;;11.30;99.90;;;;;;10490597;28;20379;-78
2022/11/08 15:45:52;;;;;;;43.30;21.33;;;11.10;99.90;;;;;;10469461;28;20110;-80
2022/11/08 15:50:55;;;;;;;59.30;34.05;;;11.00;99.90;;;;;;10481375;28;20119;-78
2022/11/08 15:56:00;;;;;;;33.67;21.42;;;10.80;99.90;;;;;;10489981;28;20114;-78
2022/11/08 16:01:03;;;;;;;32.20;19.47;;;10.70;99.90;;;;;;10489599;28;20032;-79
2022/11/08 16:06:03;;;;;;;55.63;34.45;;;10.60;99.90;;;;;;10488488;28;20040;-78
2022/11/08 16:11:05;;;;;;;52.90;30.67;;;10.50;99.90;;;;;;10488929;28;20028;-79
2022/11/08 16:16:16;;;;;;;54.47;28.95;;;10.40;99.90;;;;;;10488127;28;20464;-77
2022/11/08 16:21:16;;;;;;;45.92;25.45;;;10.30;99.90;;;;;;10470541;28;20028;-77
2022/11/08 16:26:19;;;;;;;66.03;32.08;;;10.20;99.90;;;;;;10471737;28;20468;-77
2022/11/08 16:31:20;;;;;;;62.13;31.63;;;10.20;99.90;;;;;;10488446;28;20055;-79
2022/11/08 16:36:23;;;;;;;63.15;32.00;;;10.10;99.90;;;;;;10487809;28;20195;-80
2022/11/08 16:41:24;;;;;;;74.03;37.95;;;10.00;99.90;;;;;;10485870;28;20107;-78
2022/11/08 16:46:25;;;;;;;84.63;43.33;;;9.90;99.90;;;;;;10485844;28;20112;-81
2022/11/08 16:51:27;;;;;;;108.27;57.23;;;9.90;99.90;;;;;;10485988;28;20514;-77
2022/11/08 16:56:27;;;;;;;163.90;104.50;;;9.80;99.90;;;;;;10486769;28;20040;-80
2022/11/08 17:01:31;;;;;;;120.37;81.57;;;9.70;99.90;;;;;;10487029;28;20031;-78
2022/11/08 17:06:32;;;;;;;100.70;73.63;;;9.70;99.90;;;;;;10485857;28;20559;-78
2022/11/08 17:11:33;;;;;;;71.23;45.77;;;9.60;99.90;;;;;;10485880;28;20044;-80
2022/11/08 17:16:34;;;;;;;55.60;31.90;;;9.60;99.90;;;;;;10481671;28;20574;-78
2022/11/08 17:21:39;;;;;;;55.60;31.80;;;9.50;99.90;;;;;;10484959;28;20051;-77
2022/11/08 17:26:40;;;;;;;60.33;33.37;;;9.40;99.90;;;;;;10485099;28;20036;-78
2022/11/08 17:31:41;;;;;;;57.13;32.30;;;9.20;99.90;;;;;;10486584;28;20058;-80
2022/11/08 17:36:41;;;;;;;61.53;34.67;;;9.10;99.90;;;;;;10484547;28;20056;-80
2022/11/08 17:41:42;;;;;;;73.97;37.50;;;8.90;99.90;;;;;;10484474;28;20077;-78
2022/11/08 17:46:43;;;;;;;66.33;34.00;;;8.90;99.90;;;;;;10484126;28;20036;-78
2022/11/08 17:51:43;;;;;;;78.20;41.00;;;8.80;99.90;;;;;;10484059;28;20040;-77
2022/11/08 17:56:44;;;;;;;73.87;39.90;;;8.80;99.90;;;;;;10485964;28;20041;-78
2022/11/08 18:01:44;;;;;;;97.60;52.27;;;8.80;99.90;;;;;;10484843;28;20122;-77
2022/11/08 18:06:45;;;;;;;90.33;45.50;;;8.60;99.90;;;;;;10485239;28;20062;-78
2022/11/08 18:11:48;;;;;;;119.70;60.33;;;8.60;99.90;;;;;;10485939;28;20029;-77
2022/11/08 18:16:49;;;;;;;106.07;59.13;;;8.60;99.90;;;;;;10484255;28;20171;-77
2022/11/08 18:21:49;;;;;;;129.93;70.83;;;8.50;99.90;;;;;;10490324;28;20421;-78
2022/11/08 18:26:50;;;;;;;146.40;85.90;;;8.50;99.90;;;;;;10492866;28;20035;-81
2022/11/08 18:31:50;;;;;;;158.27;94.03;;;8.40;99.90;;;;;;10488361;28;20028;-77
2022/11/08 18:36:51;;;;;;;188.70;108.60;;;8.30;99.90;;;;;;10489756;28;20063;-80
2022/11/08 18:41:51;;;;;;;170.37;99.90;;;8.10;99.90;;;;;;10491770;28;20036;-78
2022/11/08 18:46:52;;;;;;;216.23;122.47;;;8.00;99.90;;;;;;10491191;28;20395;-81
2022/11/08 18:51:53;;;;;;;178.97;99.33;;;7.90;99.90;;;;;;10491039;28;20039;-78
2022/11/08 18:56:53;;;;;;;154.33;91.63;;;7.80;99.90;;;;;;10490373;28;20047;-79
2022/11/08 19:01:54;;;;;;;160.43;95.70;;;7.80;99.90;;;;;;10491286;28;20044;-78
2022/11/08 19:06:54;;;;;;;133.97;74.97;;;7.70;99.90;;;;;;10490722;28;20380;-82
2022/11/08 19:11:55;;;;;;;141.50;77.90;;;7.60;99.90;;;;;;10491383;28;20536;-78
2022/11/08 19:16:56;;;;;;;143.73;77.67;;;7.60;99.90;;;;;;10490137;28;20032;-79
2022/11/08 19:21:56;;;;;;;132.10;73.10;;;7.50;99.90;;;;;;10470889;28;20028;-79
2022/11/08 19:26:57;;;;;;;143.33;75.63;;;7.50;99.90;;;;;;10490278;28;20036;-82
2022/11/08 19:31:58;;;;;;;132.30;68.87;;;7.50;99.90;;;;;;10488888;28;20104;-80
2022/11/08 19:36:58;;;;;;;149.83;72.40;;;7.60;99.90;;;;;;10488929;28;20040;-77
2022/11/08 19:41:59;;;;;;;134.50;66.27;;;7.90;99.90;;;;;;10489000;28;20024;-77
2022/11/08 19:46:59;;;;;;;94.57;48.43;;;8.10;99.90;;;;;;10488957;28;20244;-81
2022/11/08 19:52:00;;;;;;;95.30;47.57;;;8.30;99.90;;;;;;10488866;28;20025;-79
2022/11/08 19:57:01;;;;;;;76.97;39.70;;;8.50;99.90;;;;;;10488571;28;20799;-81
2022/11/08 20:02:02;;;;;;;71.57;36.20;;;8.60;99.90;;;;;;10487487;28;20035;-79
2022/11/08 20:07:02;;;;;;;67.23;34.00;;;8.70;99.90;;;;;;10489394;28;20024;-80
2022/11/08 20:12:04;;;;;;;68.00;32.50;;;8.80;99.90;;;;;;10487920;28;20024;-79
2022/11/08 20:17:05;;;;;;;79.63;44.03;;;8.80;99.90;;;;;;10488675;28;20044;-81
2022/11/08 20:22:05;;;;;;;71.50;39.20;;;8.80;99.90;;;;;;10487645;28;20394;-80
2022/11/08 20:27:06;;;;;;;107.50;55.87;;;8.70;99.90;;;;;;10488905;28;20374;-77
2022/11/08 20:32:06;;;;;;;88.10;45.97;;;8.60;99.90;;;;;;10484897;28;20474;-78
2022/11/08 20:37:07;;;;;;;77.73;39.40;;;8.50;99.90;;;;;;10487575;28;20053;-79
2022/11/08 20:42:08;;;;;;;71.43;36.87;;;8.60;99.90;;;;;;10487486;28;20043;-80
2022/11/08 20:47:08;;;;;;;76.97;41.50;;;8.60;99.90;;;;;;10485985;28;20036;-78
2022/11/08 20:52:09;;;;;;;67.33;36.10;;;8.60;99.90;;;;;;10487641;28;20029;-80
2022/11/08 20:57:10;;;;;;;61.73;32.43;;;8.70;99.90;;;;;;10487052;28;20055;-80
2022/11/08 21:02:11;;;;;;;67.60;34.53;;;8.70;99.90;;;;;;10487367;28;20032;-78
2022/11/08 21:07:12;;;;;;;79.03;36.80;;;8.70;99.90;;;;;;10487038;28;20480;-78
2022/11/08 21:12:12;;;;;;;67.10;34.50;;;8.70;99.90;;;;;;10485815;28;20042;-81
2022/11/08 21:17:13;;;;;;;67.97;35.93;;;8.70;99.90;;;;;;10485825;28;20487;-78
2022/11/08 21:22:13;;;;;;;72.43;35.83;;;8.70;99.90;;;;;;10486264;28;20025;-78
2022/11/08 21:27:15;;;;;;;83.37;42.60;;;8.70;99.90;;;;;;10487017;28;20116;-79
2022/11/08 21:32:15;;;;;;;74.33;38.77;;;8.70;99.90;;;;;;10485764;28;20028;-77
2022/11/08 21:37:16;;;;;;;82.40;43.17;;;8.70;99.90;;;;;;10468025;28;20412;-78
2022/11/08 21:42:16;;;;;;;83.63;40.57;;;8.70;99.90;;;;;;10486375;28;20033;-78
2022/11/08 21:47:17;;;;;;;90.37;41.80;;;8.60;99.90;;;;;;10482932;22;20147;-77
2022/11/08 21:52:17;;;;;;;79.43;39.57;;;8.60;99.90;;;;;;10444521;28;20492;-77
2022/11/08 21:57:18;;;;;;;93.57;45.83;;;8.60;99.90;;;;;;10453237;28;20037;-78
2022/11/08 22:02:19;;;;;;;87.70;41.90;;;8.60;99.90;;;;;;10451292;28;20035;-78
2022/11/08 22:07:19;;;;;;;74.43;38.13;;;8.60;99.90;;;;;;10452721;28;20056;-79
2022/11/08 22:12:20;;;;;;;83.13;40.77;;;8.60;99.90;;;;;;10452559;28;20025;-77
2022/11/08 22:17:21;;;;;;;78.90;39.30;;;8.50;99.90;;;;;;10451145;28;20496;-78
2022/11/08 22:22:21;;;;;;;82.73;43.43;;;8.50;99.90;;;;;;10451284;28;20040;-78
2022/11/08 22:27:22;;;;;;;118.13;53.83;;;8.50;99.90;;;;;;10451800;28;20040;-78
2022/11/08 22:32:23;;;;;;;155.57;65.17;;;8.40;99.90;;;;;;10451133;28;20043;-78
2022/11/08 22:37:23;;;;;;;93.20;42.57;;;8.30;99.90;;;;;;10451350;28;20045;-78
2022/11/08 22:42:24;;;;;;;109.13;54.97;;;8.20;99.90;;;;;;10450873;28;20443;-80
2022/11/08 22:47:24;;;;;;;79.87;38.33;;;8.10;99.90;;;;;;10450338;28;20064;-77
2022/11/08 22:52:25;;;;;;;75.50;36.90;;;8.10;99.90;;;;;;10450506;28;20589;-80
2022/11/08 22:57:25;;;;;;;76.03;41.77;;;8.10;99.90;;;;;;10451229;28;20048;-79
2022/11/08 23:02:26;;;;;;;78.73;38.77;;;8.10;99.90;;;;;;10450156;28;20040;-78
2022/11/08 23:07:26;;;;;;;76.70;39.73;;;8.00;99.90;;;;;;10449878;28;20596;-78
2022/11/08 23:17:46;;;;;;;81.23;37.17;;;8.00;99.90;;;;;;10449633;28;20065;-80
2022/11/08 23:33:24;;;;;;;81.40;38.70;;;8.00;99.90;;;;;;10448546;28;20476;-79
2022/11/08 23:38:25;;;;;;;79.23;38.43;;;8.00;99.90;;;;;;10449548;28;20045;-77
2022/11/08 23:48:44;;;;;;;124.97;69.33;;;8.00;99.90;;;;;;10449080;28;20069;-77
2022/11/08 23:53:45;;;;;;;135.77;70.30;;;7.90;99.90;;;;;;10448523;28;20465;-79
2022/11/08 23:58:46;;;;;;;113.43;57.90;;;7.90;99.90;;;;;;10448571;28;20153;-79
